createdAt,value
2023-05-01T00:00:51.191Z,10.8
2023-05-01T00:01:57.466Z,10.8
2023-05-01T00:03:03.816Z,10.8
2023-05-01T00:04:10.010Z,10.8
2023-05-01T00:05:16.280Z,10.8
2023-05-01T00:06:22.613Z,10.8
2023-05-01T00:07:28.824Z,10.8
2023-05-01T00:08:35.099Z,10.8
2023-05-01T00:09:41.420Z,10.8
2023-05-01T00:10:47.667Z,10.8
2023-05-01T00:11:53.973Z,10.8
2023-05-01T00:13:00.188Z,10.8
2023-05-01T00:14:05.483Z,10.7
2023-05-01T00:15:11.776Z,10.8
2023-05-01T00:16:18.026Z,10.7
2023-05-01T00:17:24.291Z,10.8
2023-05-01T00:18:30.623Z,10.7
2023-05-01T00:19:36.858Z,10.7
2023-05-01T00:20:43.123Z,10.7
2023-05-01T00:21:49.387Z,10.7
2023-05-01T00:22:55.642Z,10.7
2023-05-01T00:24:01.918Z,10.7
2023-05-01T00:25:08.182Z,10.7
2023-05-01T00:26:14.527Z,10.7
2023-05-01T00:27:20.742Z,10.7
2023-05-01T00:28:26.053Z,10.7
2023-05-01T00:29:32.335Z,10.7
2023-05-01T00:30:38.559Z,10.7
2023-05-01T00:31:44.882Z,10.7
2023-05-01T00:32:51.165Z,10.7
2023-05-01T00:33:57.392Z,10.7
2023-05-01T00:35:03.653Z,10.7
2023-05-01T00:36:09.947Z,10.7
2023-05-01T00:37:16.215Z,10.7
2023-05-01T00:38:22.510Z,10.7
2023-05-01T00:39:28.741Z,10.6
2023-05-01T00:40:35.011Z,10.6
2023-05-01T00:41:41.293Z,10.6
2023-05-01T00:42:47.571Z,10.6
2023-05-01T00:43:52.851Z,10.6
2023-05-01T00:44:59.122Z,10.6
2023-05-01T00:46:05.417Z,10.6
2023-05-01T00:47:11.665Z,10.6
2023-05-01T00:48:17.934Z,10.6
2023-05-01T00:49:24.215Z,10.6
2023-05-01T00:50:30.518Z,10.6
2023-05-01T00:51:36.787Z,10.6
2023-05-01T00:52:43.119Z,10.6
2023-05-01T00:53:49.299Z,10.6
2023-05-01T00:54:54.612Z,10.6
2023-05-01T00:55:59.906Z,10.6
2023-05-01T00:57:06.156Z,10.6
2023-05-01T00:58:12.449Z,10.6
2023-05-01T00:59:17.727Z,10.6
2023-05-01T01:00:23.077Z,10.6
2023-05-01T01:01:29.281Z,10.6
2023-05-01T01:02:35.548Z,10.6
2023-05-01T01:03:41.829Z,10.6
2023-05-01T01:04:48.165Z,10.6
2023-05-01T01:05:54.381Z,10.6
2023-05-01T01:07:00.662Z,10.6
2023-05-01T01:08:06.921Z,10.6
2023-05-01T01:09:13.208Z,10.6
2023-05-01T01:10:19.458Z,10.6
2023-05-01T01:11:25.844Z,10.6
2023-05-01T01:12:32.111Z,10.6
2023-05-01T01:13:38.290Z,10.6
2023-05-01T01:14:44.593Z,10.6
2023-05-01T01:15:49.838Z,10.6
2023-05-01T01:16:56.104Z,10.6
2023-05-01T01:18:02.379Z,10.6
2023-05-01T01:19:08.675Z,10.5
2023-05-01T01:20:14.926Z,10.5
2023-05-01T01:21:21.203Z,10.5
2023-05-01T01:22:27.457Z,10.6
2023-05-01T01:23:33.748Z,10.6
2023-05-01T01:24:40.009Z,10.6
2023-05-01T01:25:46.277Z,10.6
2023-05-01T01:26:52.547Z,10.6
2023-05-01T01:27:58.887Z,10.6
2023-05-01T01:29:05.153Z,10.5
2023-05-01T01:30:10.380Z,10.6
2023-05-01T01:31:16.748Z,10.5
2023-05-01T01:32:22.951Z,10.5
2023-05-01T01:33:29.204Z,10.5
2023-05-01T01:34:35.560Z,10.5
2023-05-01T01:35:41.743Z,10.5
2023-05-01T01:36:47.089Z,10.5
2023-05-01T01:37:53.302Z,10.5
2023-05-01T01:38:59.580Z,10.5
2023-05-01T01:40:05.917Z,10.5
2023-05-01T01:41:12.162Z,10.5
2023-05-01T01:42:18.470Z,10.5
2023-05-01T01:43:24.676Z,10.5
2023-05-01T01:44:30.932Z,10.5
2023-05-01T01:45:37.217Z,10.5
2023-05-01T01:46:43.609Z,10.5
2023-05-01T01:47:49.762Z,10.5
2023-05-01T01:48:56.087Z,10.5
2023-05-01T01:50:02.290Z,10.5
2023-05-01T01:51:07.621Z,10.4
2023-05-01T01:52:13.907Z,10.4
2023-05-01T01:53:20.141Z,10.4
2023-05-01T01:54:26.402Z,10.4
2023-05-01T01:55:32.690Z,10.4
2023-05-01T01:56:39.019Z,10.4
2023-05-01T01:57:45.214Z,10.4
2023-05-01T01:58:51.570Z,10.4
2023-05-01T01:59:57.795Z,10.4
2023-05-01T02:01:04.128Z,10.4
2023-05-01T02:02:10.313Z,10.4
2023-05-01T02:03:16.728Z,10.4
2023-05-01T02:04:22.842Z,10.4
2023-05-01T02:05:29.121Z,10.4
2023-05-01T02:06:34.447Z,10.4
2023-05-01T02:07:40.689Z,10.4
2023-05-01T02:08:47.082Z,10.4
2023-05-01T02:09:53.236Z,10.4
2023-05-01T02:10:59.514Z,10.4
2023-05-01T02:12:05.865Z,10.4
2023-05-01T02:13:12.037Z,10.4
2023-05-01T02:14:18.368Z,10.3
2023-05-01T02:15:24.585Z,10.4
2023-05-01T02:16:30.873Z,10.4
2023-05-01T02:17:37.144Z,10.3
2023-05-01T02:18:43.418Z,10.4
2023-05-01T02:19:49.696Z,10.3
2023-05-01T02:20:54.969Z,10.4
2023-05-01T02:22:01.234Z,10.3
2023-05-01T02:23:07.502Z,10.4
2023-05-01T02:24:13.777Z,10.4
2023-05-01T02:25:20.064Z,10.4
2023-05-01T02:26:26.317Z,10.3
2023-05-01T02:27:32.592Z,10.4
2023-05-01T02:28:38.875Z,10.4
2023-05-01T02:29:45.316Z,10.3
2023-05-01T02:30:51.552Z,10.4
2023-05-01T02:31:57.688Z,10.4
2023-05-01T02:33:03.943Z,10.3
2023-05-01T02:34:10.235Z,10.4
2023-05-01T02:35:15.537Z,10.3
2023-05-01T02:36:21.785Z,10.3
2023-05-01T02:37:28.061Z,10.3
2023-05-01T02:38:34.322Z,10.3
2023-05-01T02:39:40.623Z,10.3
2023-05-01T02:40:46.956Z,10.3
2023-05-01T02:41:53.133Z,10.3
2023-05-01T02:42:59.426Z,10.3
2023-05-01T02:44:05.680Z,10.3
2023-05-01T02:45:11.989Z,10.3
2023-05-01T02:47:24.511Z,10.2
2023-05-01T02:48:30.853Z,10.2
2023-05-01T02:49:36.061Z,10.2
2023-05-01T02:50:42.355Z,10.2
2023-05-01T02:51:48.608Z,10.2
2023-05-01T02:52:55.012Z,10.2
2023-05-01T02:54:01.225Z,10.2
2023-05-01T02:55:07.453Z,10.2
2023-05-01T02:56:13.857Z,10.2
2023-05-01T02:57:19.977Z,10.2
2023-05-01T02:58:26.252Z,10.2
2023-05-01T02:59:32.515Z,10.2
2023-05-01T03:00:38.842Z,10.2
2023-05-01T03:01:45.054Z,10.2
2023-05-01T03:02:51.337Z,10.2
2023-05-01T03:03:56.618Z,10.2
2023-05-01T03:05:02.892Z,10.1
2023-05-01T03:06:09.155Z,10.2
2023-05-01T03:07:15.454Z,10.2
2023-05-01T03:08:21.718Z,10.1
2023-05-01T03:09:27.987Z,10.1
2023-05-01T03:10:34.292Z,10.1
2023-05-01T03:11:40.515Z,10.1
2023-05-01T03:12:46.816Z,10.1
2023-05-01T03:13:53.067Z,10.1
2023-05-01T03:14:59.342Z,10.1
2023-05-01T03:16:05.616Z,10.1
2023-05-01T03:17:11.871Z,10.1
2023-05-01T03:18:17.205Z,10.1
2023-05-01T03:19:22.464Z,10.1
2023-05-01T03:20:27.845Z,10.1
2023-05-01T03:21:33.112Z,10.1
2023-05-01T03:22:38.379Z,10.1
2023-05-01T03:23:44.672Z,10
2023-05-01T03:24:50.900Z,10.1
2023-05-01T03:25:57.159Z,10.1
2023-05-01T03:27:03.424Z,10.1
2023-05-01T03:28:09.699Z,10.1
2023-05-01T03:29:16.006Z,10
2023-05-01T03:30:22.267Z,10
2023-05-01T03:31:28.504Z,10
2023-05-01T03:32:34.796Z,10
2023-05-01T03:33:41.054Z,10
2023-05-01T03:34:47.323Z,10
2023-05-01T03:35:53.591Z,10
2023-05-01T03:36:58.882Z,10
2023-05-01T03:38:05.191Z,10
2023-05-01T03:39:11.457Z,10
2023-05-01T03:40:17.734Z,10
2023-05-01T03:41:24.020Z,10
2023-05-01T03:42:30.256Z,10
2023-05-01T03:43:36.574Z,10
2023-05-01T03:44:42.792Z,10
2023-05-01T03:45:49.055Z,10
2023-05-01T03:46:55.340Z,10
2023-05-01T03:48:01.662Z,10
2023-05-01T03:49:07.880Z,10
2023-05-01T03:50:14.199Z,10
2023-05-01T03:51:19.484Z,10
2023-05-01T03:52:25.711Z,10
2023-05-01T03:53:32.003Z,10
2023-05-01T03:54:38.265Z,10
2023-05-01T03:55:44.528Z,10
2023-05-01T03:56:50.797Z,10
2023-05-01T03:57:57.117Z,10
2023-05-01T03:59:03.521Z,10
2023-05-01T04:00:09.610Z,10
2023-05-01T04:01:15.952Z,10
2023-05-01T04:02:22.158Z,10
2023-05-01T04:03:28.441Z,10
2023-05-01T04:04:33.761Z,10
2023-05-01T04:05:39.085Z,10
2023-05-01T04:06:45.295Z,10
2023-05-01T04:07:50.584Z,10
2023-05-01T04:08:55.901Z,10
2023-05-01T04:10:02.325Z,10
2023-05-01T04:11:08.432Z,10
2023-05-01T04:12:14.703Z,10
2023-05-01T04:13:20.982Z,10
2023-05-01T04:14:27.238Z,10
2023-05-01T04:15:33.588Z,10
2023-05-01T04:16:39.817Z,10
2023-05-01T04:17:46.059Z,10
2023-05-01T04:18:52.323Z,10
2023-05-01T04:19:58.608Z,10
2023-05-01T04:21:04.951Z,10
2023-05-01T04:22:11.138Z,10
2023-05-01T04:23:16.452Z,10
2023-05-01T04:24:22.703Z,10
2023-05-01T04:25:28.967Z,10
2023-05-01T04:26:35.239Z,10
2023-05-01T04:27:41.522Z,10
2023-05-01T04:28:47.802Z,10
2023-05-01T04:29:54.088Z,10
2023-05-01T04:31:00.373Z,10
2023-05-01T04:32:06.609Z,10
2023-05-01T04:33:12.956Z,10
2023-05-01T04:34:19.153Z,10
2023-05-01T04:35:25.417Z,10
2023-05-01T04:36:31.779Z,10
2023-05-01T04:37:37.065Z,10
2023-05-01T04:38:43.284Z,10
2023-05-01T04:39:49.587Z,10
2023-05-01T04:40:55.881Z,10
2023-05-01T04:42:02.065Z,10
2023-05-01T04:43:08.356Z,10
2023-05-01T04:44:14.614Z,10
2023-05-01T04:45:20.884Z,9.9
2023-05-01T04:47:33.488Z,9.9
2023-05-01T04:48:39.758Z,9.9
2023-05-01T04:49:45.996Z,9.9
2023-05-01T04:50:52.236Z,9.9
2023-05-01T04:51:57.599Z,9.9
2023-05-01T04:53:03.818Z,9.9
2023-05-01T04:54:10.066Z,9.9
2023-05-01T04:55:16.349Z,9.9
2023-05-01T04:56:22.672Z,9.9
2023-05-01T04:57:28.884Z,9.8
2023-05-01T04:58:35.155Z,9.8
2023-05-01T04:59:41.590Z,9.8
2023-05-01T05:00:47.713Z,9.8
2023-05-01T05:01:53.980Z,9.8
2023-05-01T05:03:00.245Z,9.8
2023-05-01T05:04:06.523Z,9.8
2023-05-01T05:05:12.790Z,9.8
2023-05-01T05:06:18.171Z,9.8
2023-05-01T05:07:24.368Z,9.7
2023-05-01T05:08:30.625Z,9.7
2023-05-01T05:09:36.886Z,9.7
2023-05-01T05:10:43.160Z,9.7
2023-05-01T05:11:49.451Z,9.7
2023-05-01T05:12:55.740Z,9.7
2023-05-01T05:14:02.024Z,9.7
2023-05-01T05:15:08.354Z,9.7
2023-05-01T05:16:14.512Z,9.6
2023-05-01T05:17:20.787Z,9.6
2023-05-01T05:18:26.076Z,9.6
2023-05-01T05:19:32.396Z,9.5
2023-05-01T05:20:38.651Z,9.5
2023-05-01T05:21:44.913Z,9.5
2023-05-01T05:22:51.165Z,9.4
2023-05-01T05:23:57.440Z,9.4
2023-05-01T05:25:03.714Z,9.4
2023-05-01T05:26:09.980Z,9.4
2023-05-01T05:27:16.291Z,9.4
2023-05-01T05:28:22.530Z,9.4
2023-05-01T05:29:28.797Z,9.4
2023-05-01T05:30:35.078Z,9.3
2023-05-01T05:31:41.343Z,9.3
2023-05-01T05:32:46.678Z,9.3
2023-05-01T05:33:52.926Z,9.3
2023-05-01T05:34:59.221Z,9.3
2023-05-01T05:36:05.449Z,9.3
2023-05-01T05:37:11.731Z,9.3
2023-05-01T05:38:17.987Z,9.3
2023-05-01T05:39:24.260Z,9.3
2023-05-01T05:40:30.529Z,9.3
2023-05-01T05:41:36.898Z,9.3
2023-05-01T05:42:43.146Z,9.2
2023-05-01T05:43:49.382Z,9.3
2023-05-01T05:44:55.622Z,9.3
2023-05-01T05:46:01.892Z,9.3
2023-05-01T05:47:07.182Z,9.3
2023-05-01T05:48:13.455Z,9.3
2023-05-01T05:49:19.722Z,9.3
2023-05-01T05:50:25.999Z,9.4
2023-05-01T05:51:32.271Z,9.3
2023-05-01T05:53:44.811Z,9.3
2023-05-01T05:54:51.077Z,9.3
2023-05-01T05:55:57.373Z,9.3
2023-05-01T05:57:03.624Z,9.3
2023-05-01T05:58:09.909Z,9.3
2023-05-01T05:59:16.177Z,9.3
2023-05-01T06:00:22.443Z,9.3
2023-05-01T06:01:27.728Z,9.3
2023-05-01T06:02:34.053Z,9.3
2023-05-01T06:03:40.285Z,9.3
2023-05-01T06:04:46.549Z,9.4
2023-05-01T06:05:52.820Z,9.4
2023-05-01T06:06:59.087Z,9.4
2023-05-01T06:08:05.365Z,9.4
2023-05-01T06:10:17.954Z,9.4
2023-05-01T06:11:24.203Z,9.5
2023-05-01T06:12:30.572Z,9.5
2023-05-01T06:13:36.813Z,9.5
2023-05-01T06:14:42.995Z,9.5
2023-05-01T06:15:48.286Z,9.5
2023-05-01T06:16:54.559Z,9.5
2023-05-01T06:18:00.828Z,9.6
2023-05-01T06:19:07.098Z,9.6
2023-05-01T06:20:13.474Z,9.6
2023-05-01T06:21:19.649Z,9.6
2023-05-01T06:22:25.915Z,9.6
2023-05-01T06:23:32.240Z,9.6
2023-05-01T06:24:38.453Z,9.6
2023-05-01T06:25:44.734Z,9.7
2023-05-01T06:26:50.995Z,9.7
2023-05-01T06:27:57.270Z,9.7
2023-05-01T06:29:03.554Z,9.7
2023-05-01T06:30:08.855Z,9.7
2023-05-01T06:31:15.116Z,9.7
2023-05-01T06:32:21.481Z,9.7
2023-05-01T06:33:27.693Z,9.8
2023-05-01T06:34:33.927Z,9.7
2023-05-01T06:35:40.201Z,9.7
2023-05-01T06:36:46.487Z,9.7
2023-05-01T06:37:52.725Z,9.8
2023-05-01T06:38:59.000Z,9.8
2023-05-01T06:40:05.349Z,9.8
2023-05-01T06:41:11.540Z,9.8
2023-05-01T06:42:17.824Z,9.8
2023-05-01T06:43:24.091Z,9.8
2023-05-01T06:44:29.360Z,9.8
2023-05-01T06:45:35.646Z,9.8
2023-05-01T06:46:41.929Z,9.8
2023-05-01T06:47:47.225Z,9.8
2023-05-01T06:48:52.520Z,9.8
2023-05-01T06:49:58.847Z,9.8
2023-05-01T06:51:05.078Z,9.9
2023-05-01T06:52:10.344Z,9.9
2023-05-01T06:53:15.660Z,10
2023-05-01T06:54:21.930Z,10
2023-05-01T06:55:28.233Z,10
2023-05-01T06:56:34.453Z,10
2023-05-01T06:57:40.765Z,10
2023-05-01T06:59:53.257Z,10.1
2023-05-01T07:00:59.560Z,10.1
2023-05-01T07:02:05.836Z,10.1
2023-05-01T07:03:12.079Z,10.2
2023-05-01T07:04:18.362Z,10.2
2023-05-01T07:05:24.620Z,10.2
2023-05-01T07:06:30.906Z,10.2
2023-05-01T07:07:36.262Z,10.2
2023-05-01T07:08:42.481Z,10.3
2023-05-01T07:09:48.777Z,10.3
2023-05-01T07:10:55.025Z,10.4
2023-05-01T07:12:01.411Z,10.4
2023-05-01T07:13:07.590Z,10.4
2023-05-01T07:14:13.901Z,10.5
2023-05-01T07:15:20.091Z,10.5
2023-05-01T07:16:26.365Z,10.5
2023-05-01T07:17:32.632Z,10.6
2023-05-01T07:18:38.921Z,10.6
2023-05-01T07:19:45.336Z,10.6
2023-05-01T07:20:51.547Z,10.6
2023-05-01T07:21:57.749Z,10.6
2023-05-01T07:23:03.041Z,10.6
2023-05-01T07:24:09.283Z,10.7
2023-05-01T07:25:15.549Z,10.7
2023-05-01T07:26:21.821Z,10.7
2023-05-01T07:27:28.099Z,10.7
2023-05-01T07:28:34.371Z,10.8
2023-05-01T07:29:40.626Z,10.8
2023-05-01T07:30:47.012Z,10.8
2023-05-01T07:31:53.202Z,10.8
2023-05-01T07:32:59.461Z,10.8
2023-05-01T07:34:05.723Z,10.8
2023-05-01T07:35:12.006Z,10.8
2023-05-01T07:36:18.283Z,10.8
2023-05-01T07:37:23.573Z,10.9
2023-05-01T07:38:29.824Z,10.9
2023-05-01T07:39:36.101Z,10.9
2023-05-01T07:40:42.435Z,11
2023-05-01T07:41:47.747Z,11
2023-05-01T07:42:53.012Z,11
2023-05-01T07:43:58.259Z,11
2023-05-01T07:45:03.672Z,11
2023-05-01T07:46:09.840Z,11
2023-05-01T07:47:16.087Z,11
2023-05-01T07:48:22.374Z,11
2023-05-01T07:49:28.677Z,11
2023-05-01T07:50:34.922Z,11
2023-05-01T07:51:41.320Z,11
2023-05-01T07:52:47.464Z,11
2023-05-01T07:53:53.800Z,11
2023-05-01T07:54:59.990Z,11
2023-05-01T07:56:06.278Z,11.1
2023-05-01T07:57:12.538Z,11.1
2023-05-01T07:58:18.878Z,11.1
2023-05-01T07:59:24.077Z,11.1
2023-05-01T08:00:30.357Z,11.1
2023-05-01T08:01:36.642Z,11.1
2023-05-01T08:02:42.929Z,11.1
2023-05-01T08:03:49.178Z,11.2
2023-05-01T08:06:01.724Z,11.1
2023-05-01T08:07:08.027Z,11.1
2023-05-01T08:08:14.296Z,11.1
2023-05-01T08:09:20.540Z,11.2
2023-05-01T08:10:26.813Z,11.2
2023-05-01T08:11:33.169Z,11.1
2023-05-01T08:12:39.371Z,11
2023-05-01T08:13:44.644Z,11.1
2023-05-01T08:14:50.006Z,11.1
2023-05-01T08:15:55.235Z,11.2
2023-05-01T08:17:00.530Z,11.2
2023-05-01T08:18:06.796Z,11.2
2023-05-01T08:19:13.075Z,11.2
2023-05-01T08:20:19.350Z,11.1
2023-05-01T08:21:25.617Z,11.1
2023-05-01T08:22:31.888Z,11.2
2023-05-01T08:23:38.286Z,11.2
2023-05-01T08:24:44.505Z,11.2
2023-05-01T08:25:50.780Z,11.3
2023-05-01T08:26:56.973Z,11.3
2023-05-01T08:28:03.251Z,11.3
2023-05-01T08:29:09.569Z,11.4
2023-05-01T08:30:15.844Z,11.4
2023-05-01T08:31:21.089Z,11.4
2023-05-01T08:32:27.353Z,11.5
2023-05-01T08:33:33.620Z,11.5
2023-05-01T08:34:39.915Z,11.6
2023-05-01T08:35:46.206Z,11.6
2023-05-01T08:36:52.447Z,11.7
2023-05-01T08:37:58.717Z,11.7
2023-05-01T08:39:04.989Z,11.8
2023-05-01T08:40:11.303Z,11.8
2023-05-01T08:41:17.599Z,11.8
2023-05-01T08:42:23.872Z,11.9
2023-05-01T08:43:30.128Z,11.9
2023-05-01T08:44:36.336Z,12
2023-05-01T08:45:41.629Z,12
2023-05-01T08:46:48.002Z,12
2023-05-01T08:47:54.174Z,12
2023-05-01T08:49:00.478Z,12.1
2023-05-01T08:50:06.793Z,12.1
2023-05-01T08:51:13.027Z,12.2
2023-05-01T08:52:19.375Z,12.2
2023-05-01T08:53:25.545Z,12.2
2023-05-01T08:54:31.803Z,12.2
2023-05-01T08:55:38.091Z,12.1
2023-05-01T08:56:44.348Z,12.1
2023-05-01T08:57:50.642Z,12.1
2023-05-01T08:58:56.904Z,12.1
2023-05-01T09:00:02.180Z,12.2
2023-05-01T09:01:08.523Z,12.3
2023-05-01T09:02:14.721Z,12.4
2023-05-01T09:03:21.096Z,12.4
2023-05-01T09:04:27.262Z,12.5
2023-05-01T09:05:33.550Z,12.6
2023-05-01T09:06:39.817Z,12.7
2023-05-01T09:07:46.088Z,12.6
2023-05-01T09:08:52.357Z,12.7
2023-05-01T09:09:58.625Z,12.7
2023-05-01T09:12:11.177Z,12.8
2023-05-01T09:13:17.538Z,12.8
2023-05-01T09:14:22.738Z,12.7
2023-05-01T09:15:29.128Z,12.7
2023-05-01T09:16:35.295Z,12.7
2023-05-01T09:17:41.543Z,12.8
2023-05-01T09:18:47.976Z,12.7
2023-05-01T09:19:54.110Z,12.7
2023-05-01T09:21:00.464Z,12.8
2023-05-01T09:22:06.639Z,12.8
2023-05-01T09:23:12.978Z,12.9
2023-05-01T09:24:19.188Z,12.9
2023-05-01T09:25:25.468Z,13
2023-05-01T09:26:31.742Z,13.1
2023-05-01T09:27:38.010Z,13.1
2023-05-01T09:28:43.288Z,13
2023-05-01T09:29:49.551Z,13
2023-05-01T09:30:55.838Z,13
2023-05-01T09:32:02.101Z,13.1
2023-05-01T09:33:08.383Z,13.1
2023-05-01T09:34:14.654Z,13.2
2023-05-01T09:35:20.906Z,13.2
2023-05-01T09:36:27.184Z,13.3
2023-05-01T09:37:33.488Z,13.3
2023-05-01T09:38:39.774Z,13.3
2023-05-01T09:39:46.175Z,13.3
2023-05-01T09:40:52.271Z,13.3
2023-05-01T09:41:58.545Z,13.2
2023-05-01T09:43:03.832Z,13
2023-05-01T09:44:10.105Z,12.8
2023-05-01T09:45:16.377Z,12.7
2023-05-01T09:46:22.656Z,12.8
2023-05-01T09:47:28.928Z,12.8
2023-05-01T09:48:35.196Z,12.8
2023-05-01T09:49:41.468Z,12.8
2023-05-01T09:50:47.757Z,12.8
2023-05-01T09:51:54.073Z,12.8
2023-05-01T09:53:00.271Z,12.7
2023-05-01T09:54:06.661Z,12.5
2023-05-01T09:55:12.837Z,12.5
2023-05-01T09:56:19.096Z,12.5
2023-05-01T09:57:24.384Z,12.5
2023-05-01T09:58:30.729Z,12.6
2023-05-01T09:59:36.978Z,12.7
2023-05-01T10:00:43.346Z,12.7
2023-05-01T10:01:49.535Z,12.6
2023-05-01T10:02:55.749Z,12.6
2023-05-01T10:04:02.013Z,12.6
2023-05-01T10:05:08.431Z,12.7
2023-05-01T10:06:14.772Z,12.8
2023-05-01T10:07:21.041Z,12.6
2023-05-01T10:08:27.302Z,12.5
2023-05-01T10:09:33.580Z,12.4
2023-05-01T10:10:39.832Z,12.4
2023-05-01T10:11:44.995Z,12.5
2023-05-01T10:12:51.214Z,12.5
2023-05-01T10:13:57.642Z,12.6
2023-05-01T10:15:03.919Z,12.5
2023-05-01T10:16:10.192Z,12.5
2023-05-01T10:18:22.790Z,12.4
2023-05-01T10:19:28.839Z,12.6
2023-05-01T10:20:35.108Z,12.7
2023-05-01T10:21:41.397Z,12.6
2023-05-01T10:22:47.666Z,12.8
2023-05-01T10:23:54.101Z,12.9
2023-05-01T10:25:00.362Z,12.9
2023-05-01T10:26:05.495Z,12.9
2023-05-01T10:27:11.983Z,12.9
2023-05-01T10:28:18.231Z,13.1
2023-05-01T10:29:24.315Z,13.2
2023-05-01T10:30:30.738Z,13.4
2023-05-01T10:31:36.979Z,13.6
2023-05-01T10:32:43.284Z,13.8
2023-05-01T10:33:49.524Z,13.9
2023-05-01T10:34:55.832Z,13.6
2023-05-01T10:36:02.051Z,13.5
2023-05-01T10:37:08.202Z,13.4
2023-05-01T10:38:14.578Z,13.5
2023-05-01T10:39:20.957Z,13.6
2023-05-01T10:40:26.170Z,13.8
2023-05-01T10:41:32.483Z,13.8
2023-05-01T10:42:38.749Z,13.8
2023-05-01T10:43:45.009Z,13.9
2023-05-01T10:44:51.276Z,13.9
2023-05-01T10:45:57.430Z,13.9
2023-05-01T10:47:03.956Z,13.8
2023-05-01T10:48:09.996Z,13.8
2023-05-01T10:49:16.332Z,13.7
2023-05-01T10:50:22.659Z,13.7
2023-05-01T10:51:28.979Z,13.8
2023-05-01T10:52:35.090Z,13.8
2023-05-01T10:53:41.463Z,13.9
2023-05-01T10:54:46.719Z,13.9
2023-05-01T10:55:52.983Z,13.9
2023-05-01T10:56:59.380Z,13.9
2023-05-01T10:58:05.409Z,14
2023-05-01T10:59:11.764Z,14.1
2023-05-01T11:00:18.002Z,14.3
2023-05-01T11:01:24.270Z,14.4
2023-05-01T11:02:30.579Z,14.5
2023-05-01T11:03:36.762Z,14.5
2023-05-01T11:04:43.120Z,14.7
2023-05-01T11:05:49.301Z,14.7
2023-05-01T11:08:01.876Z,14.9
2023-05-01T11:09:07.221Z,15.1
2023-05-01T11:10:13.407Z,15.3
2023-05-01T11:11:19.686Z,15.5
2023-05-01T11:12:26.080Z,15.6
2023-05-01T11:13:32.361Z,15.8
2023-05-01T11:14:38.492Z,15.4
2023-05-01T11:15:44.945Z,15.2
2023-05-01T11:16:51.199Z,15
2023-05-01T11:17:57.308Z,15.1
2023-05-01T11:19:03.593Z,15.4
2023-05-01T11:20:09.842Z,15.6
2023-05-01T11:21:16.139Z,15.8
2023-05-01T11:22:22.441Z,15.9
2023-05-01T11:23:27.694Z,16.2
2023-05-01T11:24:33.962Z,16.4
2023-05-01T11:25:40.383Z,16.4
2023-05-01T11:26:46.635Z,16.6
2023-05-01T11:27:52.770Z,16.5
2023-05-01T11:28:59.060Z,16
2023-05-01T11:30:05.311Z,16.1
2023-05-01T11:31:11.595Z,16.4
2023-05-01T11:32:17.913Z,16.7
2023-05-01T11:33:24.147Z,17
2023-05-01T11:34:30.408Z,17.2
2023-05-01T11:35:36.776Z,17.5
2023-05-01T11:36:42.952Z,17.7
2023-05-01T11:37:48.238Z,17.8
2023-05-01T11:38:54.641Z,17.9
2023-05-01T11:40:00.822Z,18
2023-05-01T11:41:07.201Z,18
2023-05-01T11:42:13.444Z,18.1
2023-05-01T11:43:19.596Z,18.1
2023-05-01T11:44:25.866Z,18
2023-05-01T11:45:32.250Z,17.6
2023-05-01T11:46:38.416Z,17.6
2023-05-01T11:47:44.682Z,17.4
2023-05-01T11:48:50.953Z,17.2
2023-05-01T11:49:57.225Z,16.8
2023-05-01T11:51:02.522Z,16.7
2023-05-01T11:52:07.813Z,16.5
2023-05-01T11:53:14.079Z,16.5
2023-05-01T11:54:19.458Z,16.3
2023-05-01T11:55:24.667Z,16.4
2023-05-01T11:56:31.059Z,16.4
2023-05-01T11:57:37.265Z,16.7
2023-05-01T11:58:43.484Z,16.9
2023-05-01T11:59:49.759Z,17.1
2023-05-01T12:00:56.069Z,17.3
2023-05-01T12:02:02.374Z,17.4
2023-05-01T12:03:08.576Z,17.3
2023-05-01T12:04:14.904Z,17.4
2023-05-01T12:05:21.160Z,17.5
2023-05-01T12:06:27.541Z,17.5
2023-05-01T12:07:33.725Z,17.3
2023-05-01T12:08:40.072Z,17.1
2023-05-01T12:09:45.228Z,17.1
2023-05-01T12:10:51.504Z,17
2023-05-01T12:11:57.790Z,16.8
2023-05-01T12:13:04.048Z,16.8
2023-05-01T12:14:10.305Z,16.8
2023-05-01T12:15:16.703Z,16.8
2023-05-01T12:16:22.855Z,16.7
2023-05-01T12:17:28.213Z,16.7
2023-05-01T12:18:33.484Z,16.7
2023-05-01T12:19:38.804Z,17
2023-05-01T12:20:44.028Z,17.1
2023-05-01T12:21:50.446Z,17.3
2023-05-01T12:22:56.567Z,17.1
2023-05-01T12:24:02.924Z,17.1
2023-05-01T12:25:09.278Z,17.1
2023-05-01T12:26:15.390Z,17.1
2023-05-01T12:27:21.661Z,17.1
2023-05-01T12:28:27.964Z,17
2023-05-01T12:29:34.248Z,17.1
2023-05-01T12:30:40.472Z,17.2
2023-05-01T12:31:46.747Z,17.1
2023-05-01T12:32:53.080Z,17.2
2023-05-01T12:33:59.314Z,17.1
2023-05-01T12:35:04.733Z,17
2023-05-01T12:36:10.900Z,17
2023-05-01T12:37:17.119Z,16.7
2023-05-01T12:38:23.421Z,16.7
2023-05-01T12:39:29.758Z,16.7
2023-05-01T12:40:35.941Z,16.8
2023-05-01T12:41:41.237Z,16.8
2023-05-01T12:42:47.497Z,16.8
2023-05-01T12:43:53.815Z,16.6
2023-05-01T12:45:00.050Z,16.7
2023-05-01T12:46:06.368Z,16.6
2023-05-01T12:47:12.603Z,16.5
2023-05-01T12:48:18.887Z,16.3
2023-05-01T12:49:24.276Z,16.1
2023-05-01T12:50:29.576Z,15.9
2023-05-01T12:51:35.744Z,15.8
2023-05-01T12:52:41.993Z,15.8
2023-05-01T12:53:47.413Z,15.9
2023-05-01T12:54:52.693Z,15.9
2023-05-01T12:55:58.928Z,15.9
2023-05-01T12:57:05.148Z,15.9
2023-05-01T12:58:11.414Z,15.9
2023-05-01T12:59:17.798Z,16
2023-05-01T13:00:23.969Z,16
2023-05-01T13:01:30.252Z,16.2
2023-05-01T13:02:36.506Z,16.4
2023-05-01T13:03:42.765Z,16.6
2023-05-01T13:04:49.036Z,16.6
2023-05-01T13:05:55.314Z,16.6
2023-05-01T13:07:01.595Z,16.5
2023-05-01T13:08:07.837Z,16.5
2023-05-01T13:09:13.123Z,16.6
2023-05-01T13:10:19.406Z,16.7
2023-05-01T13:11:25.722Z,16.8
2023-05-01T13:12:32.028Z,16.7
2023-05-01T13:13:38.215Z,16.8
2023-05-01T13:14:44.547Z,16.8
2023-05-01T13:15:50.759Z,17
2023-05-01T13:16:57.029Z,17.1
2023-05-01T13:18:03.313Z,17.1
2023-05-01T13:19:09.628Z,17.2
2023-05-01T13:20:15.845Z,17.3
2023-05-01T13:21:22.123Z,17.3
2023-05-01T13:22:28.470Z,17.2
2023-05-01T13:23:33.704Z,17.3
2023-05-01T13:24:38.978Z,17.2
2023-05-01T13:25:44.272Z,17.3
2023-05-01T13:26:49.749Z,17.3
2023-05-01T13:27:54.910Z,17.2
2023-05-01T13:29:01.168Z,17.1
2023-05-01T13:30:07.435Z,17.1
2023-05-01T13:31:13.718Z,17.1
2023-05-01T13:32:19.937Z,17
2023-05-01T13:33:26.240Z,17
2023-05-01T13:34:32.480Z,17.1
2023-05-01T13:35:38.859Z,17
2023-05-01T13:36:45.034Z,16.9
2023-05-01T13:37:51.296Z,16.8
2023-05-01T13:38:57.576Z,16.7
2023-05-01T13:40:03.980Z,16.6
2023-05-01T13:41:10.136Z,16.6
2023-05-01T13:42:15.392Z,16.6
2023-05-01T13:43:21.668Z,16.5
2023-05-01T13:44:27.944Z,16.5
2023-05-01T13:45:34.285Z,16.5
2023-05-01T13:46:40.483Z,16.6
2023-05-01T13:47:46.768Z,16.7
2023-05-01T13:48:53.133Z,16.9
2023-05-01T13:49:58.471Z,17
2023-05-01T13:51:03.622Z,16.8
2023-05-01T13:52:09.939Z,16.7
2023-05-01T13:53:16.159Z,16.7
2023-05-01T13:54:21.643Z,16.6
2023-05-01T13:55:26.835Z,16.7
2023-05-01T13:56:33.064Z,16.8
2023-05-01T13:57:39.396Z,16.9
2023-05-01T13:58:45.598Z,16.9
2023-05-01T13:59:51.833Z,17
2023-05-01T14:00:58.096Z,17.1
2023-05-01T14:02:04.372Z,17.3
2023-05-01T14:03:10.642Z,17.3
2023-05-01T14:04:16.934Z,17.3
2023-05-01T14:05:23.179Z,17.2
2023-05-01T14:06:29.561Z,17
2023-05-01T14:07:35.847Z,16.8
2023-05-01T14:08:42.015Z,16.6
2023-05-01T14:09:47.310Z,16.5
2023-05-01T14:10:53.608Z,16.5
2023-05-01T14:11:59.837Z,16.4
2023-05-01T14:13:06.231Z,16.3
2023-05-01T14:14:12.394Z,16.2
2023-05-01T14:15:18.654Z,16.1
2023-05-01T14:16:24.934Z,16.1
2023-05-01T14:17:30.230Z,16.1
2023-05-01T14:18:36.533Z,16.1
2023-05-01T14:19:41.792Z,16.2
2023-05-01T14:20:48.056Z,16.2
2023-05-01T14:21:54.410Z,16.1
2023-05-01T14:22:59.625Z,16.1
2023-05-01T14:24:04.949Z,16.2
2023-05-01T14:25:11.292Z,16.2
2023-05-01T14:26:17.518Z,16.1
2023-05-01T14:27:23.888Z,16.2
2023-05-01T14:28:30.059Z,16.1
2023-05-01T14:29:36.270Z,16
2023-05-01T14:30:42.540Z,16
2023-05-01T14:31:48.883Z,16
2023-05-01T14:32:55.091Z,16
2023-05-01T14:34:01.412Z,16.1
2023-05-01T14:35:07.854Z,16.2
2023-05-01T14:36:14.012Z,16.3
2023-05-01T14:37:20.172Z,16.3
2023-05-01T14:38:25.460Z,16.4
2023-05-01T14:39:31.741Z,16.5
2023-05-01T14:40:38.000Z,16.6
2023-05-01T14:41:44.345Z,16.6
2023-05-01T14:42:50.599Z,16.6
2023-05-01T14:43:56.813Z,16.7
2023-05-01T14:45:03.184Z,16.7
2023-05-01T14:46:08.506Z,16.7
2023-05-01T14:47:13.690Z,16.7
2023-05-01T14:48:19.960Z,16.7
2023-05-01T14:49:25.323Z,16.7
2023-05-01T14:50:30.540Z,16.7
2023-05-01T14:51:36.859Z,16.7
2023-05-01T14:52:43.087Z,16.7
2023-05-01T14:53:49.409Z,16.6
2023-05-01T14:54:55.746Z,16.7
2023-05-01T14:56:01.940Z,16.7
2023-05-01T14:57:08.192Z,16.7
2023-05-01T14:58:14.500Z,16.7
2023-05-01T14:59:20.817Z,16.8
2023-05-01T15:00:26.992Z,16.7
2023-05-01T15:01:33.291Z,16.6
2023-05-01T15:02:39.535Z,16.5
2023-05-01T15:03:45.811Z,16.5